Lacon, IL

6:07 PM CDT on April 29, 2017 (GMT -0500)
Lacon | | Change Station
Active Advisory: Flood Warning

Elev 568 ft 41.01 °N, 89.33 °W | Updated 12 minutes ago

Overcast
Overcast
40 °F
Feels Like 32 °F
N
14
Wind Variable Wind from NNE
Gusts 26 mph

Today
High -- | Low -- °F
--% Chance of Precip.
Yesterday
High -- | Low -- °F
Precip. -- in
Pressure 29.92 in
Visibility 0.8 miles
Clouds Overcast 800 ft
Windchill 32 °F
Dew Point 39 °F
Humidity 99%
Rainfall 3.67 in
Snow Depth Not available.
5:57 AM 7:52 PM
Waxing Crescent, 17% visible
METAR KC75 292255Z AUTO 03012G23KT 3/4SM VCTSUP OVC008 04/04 A2992 RMK AO2 LTG DSNT ALQS P0088 T00420041
Pressure 29.92 in
Visibility 0.8 miles
Clouds Overcast 800 ft
Windchill 32 °F
Dew Point 39 °F
Humidity 99%
Rainfall 3.67 in
Snow Depth Not available.
5:57 AM 7:52 PM
Waxing Crescent, 17% visible
METAR KC75 292255Z AUTO 03012G23KT 3/4SM VCTSUP OVC008 04/04 A2992 RMK AO2 LTG DSNT ALQS P0088 T00420041

Get Your Daily Forecast Email!

Thanks for signing up!

Be on the lookout for a verification email in your inbox.

You'll start receiving severe weather alerts in your inbox..

×

10-Day Weather Forecast

Almanac

Astronomy

Apr. 29, 2017 Rise Set
Actual Time
Civil Twilight
Nautical Twilight
Astronomical Twilight
Moon
Length of Visible Light
Length of Day
Tomorrow will be .
, % of the Moon is Illuminated

Today's Extremes

State Highs State Lows

Community

WunderPhotos

WunderBlog® & News

Nearby

Air Quality

  Air Quality AQ Index Pollutant
Not available.

Snow Depth

Station Depth Elevation

Earthquake Activity

City Distance Mag. Time & Date
Minimum magnitude displayed is 2.5.

Coastal Water Temperatures

Place Temperature

Stations

Nearby Weather Stations

Station Location Temp. Windchill Dew Point Humidity Wind Precip. Elev Updated Type
                   

Watches & Warnings

Flood Warning
Issued: 12:52 PM CDT Apr. 29, 2017 – National Weather Service

The Flood Warning continues for
the Illinois River at Henry.
* From Monday evening until further notice.
* At 1245 PM Saturday the stage was 18.3 feet.
* Flood stage is 23.0 feet.
* Moderate flooding is forecast.
* Forecast... rise above flood stage by Monday evening and continue to
rise to near 30.8 feet by early Thursday morning.
* Impact... at 30.5 feet... the Marina building, Waterworks Park, and
grain loading facility in Henry are flooded.



                  Fld observed forecast 6am
location stg stg day time sun Mon Tue

Illinois River
Henry 23 18.3 Sat 1 PM 18.4 20.4 25.5



Lat... Lon 4131 8939 4135 8929 4113 8929 4093 8941
      4093 8952 4115 8939